createdAt,value
2018-03-23T00:00:03.080Z,15.50
2018-03-23T00:02:30.040Z,18.33
2018-03-23T00:04:57.094Z,16.23
2018-03-23T00:07:24.084Z,18.58
2018-03-23T00:09:51.172Z,18.05
2018-03-23T00:12:18.541Z,21.02
2018-03-23T00:14:45.455Z,19.00
2018-03-23T00:17:12.413Z,19.23
2018-03-23T00:19:39.403Z,21.87
2018-03-23T00:22:06.373Z,17.77
2018-03-23T00:24:33.411Z,17.45
2018-03-23T00:27:00.438Z,19.85
2018-03-23T00:29:27.458Z,18.55
2018-03-23T00:31:54.447Z,19.00
2018-03-23T00:34:21.541Z,18.83
2018-03-23T00:36:48.516Z,22.67
2018-03-23T00:39:15.672Z,21.17
2018-03-23T00:41:42.749Z,21.83
2018-03-23T00:44:09.573Z,19.05
2018-03-23T00:46:36.543Z,21.55
2018-03-23T00:49:03.569Z,22.10
2018-03-23T00:51:30.560Z,20.12
2018-03-23T00:53:57.518Z,17.92
2018-03-23T00:56:24.478Z,22.00
2018-03-23T00:58:51.497Z,20.10
2018-03-23T01:01:18.418Z,21.40
2018-03-23T01:03:45.391Z,18.60
2018-03-23T01:06:12.510Z,20.45
2018-03-23T01:08:39.451Z,18.70
2018-03-23T01:11:06.458Z,18.80
2018-03-23T01:13:33.398Z,15.65
2018-03-23T01:16:00.462Z,16.77
2018-03-23T01:18:27.392Z,19.23
2018-03-23T01:20:54.629Z,18.15
2018-03-23T01:23:21.644Z,18.15
2018-03-23T01:25:48.724Z,17.83
2018-03-23T01:28:15.891Z,17.87
2018-03-23T01:30:42.856Z,19.48
2018-03-23T01:33:09.906Z,17.60
2018-03-23T01:35:36.895Z,17.17
2018-03-23T01:38:03.894Z,20.08
2018-03-23T01:40:30.856Z,19.00
2018-03-23T01:42:57.778Z,17.83
2018-03-23T01:45:24.787Z,16.50
2018-03-23T01:47:51.784Z,20.85
2018-03-23T01:50:18.744Z,19.05
2018-03-23T01:52:45.658Z,20.95
2018-03-23T01:55:12.602Z,19.25
2018-03-23T01:57:39.710Z,19.83
2018-03-23T02:00:06.638Z,18.30
2018-03-23T02:02:33.607Z,18.73
2018-03-23T02:05:00.592Z,20.05
2018-03-23T02:07:27.580Z,19.00
2018-03-23T02:09:54.597Z,22.50
2018-03-23T02:12:21.963Z,20.35
2018-03-23T02:14:49.016Z,20.55
2018-03-23T02:17:16.953Z,19.15
2018-03-23T02:19:43.948Z,20.25
2018-03-23T02:22:10.822Z,18.58
2018-03-23T02:24:37.960Z,18.40
2018-03-23T02:27:05.142Z,20.15
2018-03-23T02:29:32.114Z,21.60
2018-03-23T02:31:59.271Z,22.58
2018-03-23T02:34:26.154Z,21.55
2018-03-23T02:36:53.151Z,20.92
2018-03-23T02:39:20.353Z,25.42
2018-03-23T02:41:47.298Z,18.40
2018-03-23T02:44:14.351Z,22.98
2018-03-23T02:46:41.508Z,21.17
2018-03-23T02:49:08.573Z,24.48
2018-03-23T02:51:35.603Z,25.88
2018-03-23T02:54:02.678Z,23.85
2018-03-23T02:56:29.554Z,23.92
2018-03-23T02:58:56.479Z,20.27
2018-03-23T03:01:23.642Z,23.50
2018-03-23T03:03:50.833Z,22.77
2018-03-23T03:06:17.871Z,24.77
2018-03-23T03:08:44.918Z,23.25
2018-03-23T03:11:11.952Z,24.65
2018-03-23T03:13:38.910Z,22.65
2018-03-23T03:16:06.030Z,23.83
2018-03-23T03:18:32.997Z,21.77
2018-03-23T03:20:59.969Z,24.77
2018-03-23T03:23:26.892Z,23.95
2018-03-23T03:25:53.916Z,25.12
2018-03-23T03:28:21.037Z,26.40
2018-03-23T03:30:48.286Z,25.60
2018-03-23T03:33:15.230Z,23.65
2018-03-23T03:35:42.174Z,22.55
2018-03-23T03:38:09.185Z,25.77
2018-03-23T03:40:36.258Z,23.45
2018-03-23T03:43:03.318Z,27.37
2018-03-23T03:45:30.356Z,24.58
2018-03-23T03:47:57.397Z,27.58
2018-03-23T03:50:24.442Z,30.52
2018-03-23T03:52:51.383Z,28.12
2018-03-23T03:55:18.483Z,29.65
2018-03-23T03:57:45.392Z,27.30
2018-03-23T04:00:12.330Z,28.42
2018-03-23T04:02:39.323Z,29.30
2018-03-23T04:05:06.301Z,25.62
2018-03-23T04:07:33.252Z,28.95
2018-03-23T04:10:00.228Z,25.35
2018-03-23T04:12:27.131Z,27.83
2018-03-23T04:14:54.124Z,27.23
2018-03-23T04:17:21.110Z,26.42
2018-03-23T04:19:48.001Z,27.40
2018-03-23T04:22:15.072Z,27.45
2018-03-23T04:24:42.146Z,27.42
2018-03-23T04:27:09.136Z,29.77
2018-03-23T04:29:36.280Z,28.00
2018-03-23T04:32:03.270Z,27.95
2018-03-23T04:34:30.264Z,29.23
2018-03-23T04:36:57.286Z,27.40
2018-03-23T04:39:24.317Z,27.52
2018-03-23T04:41:51.171Z,30.05
2018-03-23T04:44:18.290Z,29.55
2018-03-23T04:46:45.321Z,30.77
2018-03-23T04:49:12.211Z,33.50
2018-03-23T04:51:39.153Z,34.88
2018-03-23T04:54:06.198Z,33.67
2018-03-23T04:56:33.164Z,30.70
2018-03-23T04:59:00.202Z,32.70
2018-03-23T05:01:27.235Z,35.58
2018-03-23T05:03:54.135Z,33.10
2018-03-23T05:06:21.226Z,32.20
2018-03-23T05:08:48.338Z,31.52
2018-03-23T05:11:15.403Z,31.62
2018-03-23T05:13:42.432Z,32.78
2018-03-23T05:16:09.464Z,32.72
2018-03-23T05:18:36.422Z,35.40
2018-03-23T05:21:03.510Z,33.47
2018-03-23T05:23:30.385Z,33.78
2018-03-23T05:25:57.406Z,31.85
2018-03-23T05:28:25.529Z,35.33
2018-03-23T05:30:52.525Z,33.30
2018-03-23T05:33:19.630Z,36.92
2018-03-23T05:35:46.551Z,35.03
2018-03-23T05:38:14.652Z,31.70
2018-03-23T05:40:42.867Z,35.22
2018-03-23T05:43:10.559Z,32.88
2018-03-23T05:45:37.556Z,33.35
2018-03-23T05:48:04.598Z,31.95
2018-03-23T05:50:31.468Z,36.42
2018-03-23T05:52:58.463Z,32.20
2018-03-23T05:55:25.472Z,33.70
2018-03-23T05:57:53.186Z,35.88
2018-03-23T06:00:20.075Z,33.17
2018-03-23T06:02:47.053Z,34.60
2018-03-23T06:05:15.927Z,33.90
2018-03-23T06:07:42.884Z,34.28
2018-03-23T06:10:11.920Z,31.92
2018-03-23T06:12:41.222Z,34.45
2018-03-23T06:15:09.831Z,32.17
2018-03-23T06:17:37.498Z,32.42
2018-03-23T06:20:06.633Z,36.80
2018-03-23T06:22:36.435Z,35.10
2018-03-23T06:25:04.584Z,33.67
2018-03-23T06:27:31.676Z,36.08
2018-03-23T06:29:58.917Z,31.80
2018-03-23T06:32:26.119Z,34.47
2018-03-23T06:34:52.992Z,35.53
2018-03-23T06:37:20.189Z,36.95
2018-03-23T06:39:47.447Z,35.53
2018-03-23T06:42:14.770Z,35.08
2018-03-23T06:44:41.946Z,35.88
2018-03-23T06:47:08.948Z,37.42
2018-03-23T06:49:36.223Z,35.80
2018-03-23T06:52:03.099Z,37.13
2018-03-23T06:54:30.056Z,36.10
2018-03-23T06:56:57.215Z,34.17
2018-03-23T06:59:24.068Z,33.47
2018-03-23T07:01:51.099Z,36.47
2018-03-23T07:04:17.965Z,37.20
2018-03-23T07:06:44.932Z,36.35
2018-03-23T07:09:11.828Z,38.78
2018-03-23T07:11:38.733Z,36.25
2018-03-23T07:14:05.938Z,35.13
2018-03-23T07:16:32.935Z,31.33
2018-03-23T07:18:59.819Z,32.50
2018-03-23T07:21:27.387Z,33.92
2018-03-23T07:23:54.349Z,42.97
2018-03-23T07:26:21.399Z,33.45
2018-03-23T07:28:48.416Z,36.08
2018-03-23T07:31:15.399Z,33.85
2018-03-23T07:33:42.466Z,35.00
2018-03-23T07:36:09.392Z,31.42
2018-03-23T07:38:36.409Z,35.33
2018-03-23T07:41:04.666Z,35.85
2018-03-23T07:43:31.614Z,33.03
2018-03-23T07:45:58.545Z,34.08
2018-03-23T07:48:25.596Z,37.65
2018-03-23T07:50:52.719Z,34.45
2018-03-23T07:53:19.655Z,32.70
2018-03-23T07:55:46.583Z,39.03
2018-03-23T07:58:13.535Z,32.85
2018-03-23T08:00:41.706Z,33.85
2018-03-23T08:03:09.395Z,33.50
2018-03-23T08:05:36.635Z,36.47
2018-03-23T08:08:04.103Z,35.78
2018-03-23T08:10:31.555Z,32.42
2018-03-23T08:12:58.844Z,32.28
2018-03-23T08:15:26.378Z,27.92
2018-03-23T08:17:53.363Z,34.97
2018-03-23T08:20:20.427Z,32.80
2018-03-23T08:22:47.320Z,34.10
2018-03-23T08:25:14.171Z,32.37
2018-03-23T08:27:41.053Z,29.63
2018-03-23T08:30:07.901Z,31.93
2018-03-23T08:32:34.793Z,31.90
2018-03-23T08:35:01.763Z,29.27
2018-03-23T08:37:28.665Z,29.60
2018-03-23T08:39:55.568Z,29.00
2018-03-23T08:42:22.568Z,30.30
2018-03-23T08:44:49.684Z,31.63
2018-03-23T08:47:16.598Z,30.43
2018-03-23T08:49:43.568Z,29.13
2018-03-23T08:52:10.452Z,27.63
2018-03-23T08:54:37.375Z,31.17
2018-03-23T08:57:04.368Z,28.30
2018-03-23T08:59:34.758Z,30.83
2018-03-23T09:02:01.807Z,27.63
2018-03-23T09:04:29.032Z,31.77
2018-03-23T09:06:56.255Z,28.90
2018-03-23T09:09:23.988Z,28.97
2018-03-23T09:11:51.297Z,28.50
2018-03-23T09:14:19.248Z,30.13
2018-03-23T09:16:47.533Z,26.23
2018-03-23T09:19:14.801Z,29.80
2018-03-23T09:21:42.281Z,27.73
2018-03-23T09:24:09.312Z,28.30
2018-03-23T09:26:36.396Z,28.33
2018-03-23T09:29:04.090Z,29.10
2018-03-23T09:31:31.268Z,28.43
2018-03-23T09:33:58.255Z,26.67
2018-03-23T09:36:25.232Z,27.67
2018-03-23T09:38:52.257Z,28.80
2018-03-23T09:41:19.864Z,28.73
2018-03-23T09:43:46.819Z,26.27
2018-03-23T09:46:13.903Z,31.27
2018-03-23T09:48:41.359Z,26.83
2018-03-23T09:51:08.818Z,25.87
2018-03-23T09:53:35.769Z,30.53
2018-03-23T09:56:03.153Z,27.30
2018-03-23T09:58:30.014Z,27.27
2018-03-23T10:00:57.308Z,28.57
2018-03-23T10:03:24.373Z,25.77
2018-03-23T10:05:51.362Z,29.27
2018-03-23T10:08:18.495Z,27.70
2018-03-23T10:10:45.778Z,27.40
2018-03-23T10:13:12.762Z,28.17
2018-03-23T10:15:39.851Z,27.67
2018-03-23T10:18:06.817Z,27.87
2018-03-23T10:20:33.823Z,29.33
2018-03-23T10:23:00.801Z,28.30
2018-03-23T10:25:28.086Z,27.83
2018-03-23T10:27:54.973Z,27.17
2018-03-23T10:30:22.247Z,26.27
2018-03-23T10:32:49.814Z,27.07
2018-03-23T10:35:16.901Z,28.10
2018-03-23T10:37:43.872Z,32.03
2018-03-23T10:40:10.758Z,25.63
2018-03-23T10:42:42.473Z,23.67
2018-03-23T10:45:09.804Z,23.70
2018-03-23T10:47:36.750Z,24.50
2018-03-23T10:50:03.577Z,24.97
2018-03-23T10:52:30.445Z,26.00
2018-03-23T10:54:57.371Z,24.53
2018-03-23T10:57:24.201Z,25.70
2018-03-23T10:59:51.058Z,24.40
2018-03-23T11:02:36.724Z,25.27
2018-03-23T11:05:03.680Z,22.90
2018-03-23T11:07:30.583Z,23.03
2018-03-23T11:09:57.605Z,30.93
2018-03-23T11:12:24.446Z,26.10
2018-03-23T11:14:51.331Z,24.40
2018-03-23T11:17:18.337Z,25.10
2018-03-23T11:19:45.386Z,24.33
2018-03-23T11:22:12.267Z,24.83
2018-03-23T11:24:39.215Z,23.63
2018-03-23T11:27:06.158Z,22.70
2018-03-23T11:29:33.028Z,22.80
2018-03-23T11:31:59.998Z,23.70
2018-03-23T11:34:26.836Z,21.80
2018-03-23T11:36:53.676Z,22.53
2018-03-23T11:39:20.592Z,22.27
2018-03-23T11:41:47.634Z,22.40
2018-03-23T11:44:14.528Z,22.60
2018-03-23T11:46:41.562Z,26.83
2018-03-23T11:49:08.687Z,23.43
2018-03-23T11:51:35.660Z,22.33
2018-03-23T11:54:02.534Z,22.53
2018-03-23T11:56:29.609Z,23.03
2018-03-23T11:58:56.553Z,19.77
2018-03-23T12:01:23.532Z,24.53
2018-03-23T12:03:50.387Z,20.80
2018-03-23T12:06:17.551Z,21.10
2018-03-23T12:08:44.467Z,20.07
2018-03-23T12:11:11.363Z,22.00
2018-03-23T12:13:38.261Z,20.53
2018-03-23T12:16:05.201Z,23.47
2018-03-23T12:18:32.051Z,20.13
2018-03-23T12:20:59.031Z,21.37
2018-03-23T12:23:25.892Z,27.90
2018-03-23T12:25:52.879Z,21.60
2018-03-23T12:28:20.097Z,20.53
2018-03-23T12:30:47.307Z,19.70
2018-03-23T12:33:14.245Z,19.43
2018-03-23T12:35:41.147Z,18.90
2018-03-23T12:38:08.044Z,18.70
2018-03-23T12:40:34.902Z,19.50
2018-03-23T12:43:01.837Z,19.50
2018-03-23T12:45:28.812Z,19.23
2018-03-23T12:47:57.624Z,19.43
2018-03-23T12:50:24.601Z,20.43
2018-03-23T12:52:51.932Z,21.37
2018-03-23T12:55:18.965Z,18.90
2018-03-23T12:57:45.796Z,23.77
2018-03-23T13:00:12.818Z,21.73
2018-03-23T13:02:39.730Z,20.07
2018-03-23T13:05:06.906Z,16.30
2018-03-23T13:07:33.743Z,14.87
2018-03-23T13:10:00.684Z,18.07
2018-03-23T13:12:27.608Z,19.77
2018-03-23T13:14:54.588Z,16.40
2018-03-23T13:17:22.488Z,20.07
2018-03-23T13:19:51.086Z,17.67
2018-03-23T13:22:18.531Z,20.63
2018-03-23T13:24:46.187Z,17.70
2018-03-23T13:27:13.314Z,15.53
2018-03-23T13:29:40.374Z,19.03
2018-03-23T13:32:07.692Z,17.37
2018-03-23T13:34:34.767Z,18.77
2018-03-23T13:37:03.487Z,23.03
2018-03-23T13:39:36.976Z,27.83
2018-03-23T13:42:05.577Z,29.17
2018-03-23T13:44:34.287Z,29.97
2018-03-23T13:47:02.994Z,29.83
2018-03-23T13:49:31.354Z,32.07
2018-03-23T13:52:01.197Z,27.00
2018-03-23T13:54:29.530Z,28.37
2018-03-23T13:56:57.035Z,27.97
2018-03-23T13:59:30.437Z,34.57
2018-03-23T14:01:57.574Z,35.80
2018-03-23T14:04:24.454Z,26.17
2018-03-23T14:06:51.770Z,27.60
2018-03-23T14:09:19.287Z,32.27
2018-03-23T14:11:48.239Z,28.83
2018-03-23T14:14:16.222Z,27.67
2018-03-23T14:16:48.278Z,29.50
2018-03-23T14:19:15.782Z,31.10
2018-03-23T14:21:42.957Z,27.43
2018-03-23T14:24:09.828Z,30.33
2018-03-23T14:26:36.951Z,23.67
2018-03-23T14:29:03.885Z,18.77
2018-03-23T14:31:31.058Z,18.77
2018-03-23T14:33:58.912Z,18.33
2018-03-23T14:36:26.200Z,15.93
2018-03-23T14:38:53.233Z,16.33
2018-03-23T14:41:20.395Z,17.10
2018-03-23T14:43:47.340Z,14.47
2018-03-23T14:46:14.498Z,17.10
2018-03-23T14:48:41.389Z,16.97
2018-03-23T14:51:08.545Z,18.97
2018-03-23T14:53:35.453Z,16.63
2018-03-23T14:56:02.598Z,16.30
2018-03-23T14:58:35.097Z,16.63
2018-03-23T15:01:02.221Z,17.77
2018-03-23T15:03:29.151Z,17.60
2018-03-23T15:05:57.546Z,17.83
2018-03-23T15:08:24.620Z,15.97
2018-03-23T15:10:52.163Z,18.33
2018-03-23T15:13:19.183Z,16.73
2018-03-23T15:15:46.861Z,15.33
2018-03-23T15:18:13.767Z,17.03
2018-03-23T15:20:40.705Z,16.53
2018-03-23T15:23:07.726Z,18.37
2018-03-23T15:25:34.644Z,17.20
2018-03-23T15:28:01.556Z,18.13
2018-03-23T15:30:28.402Z,17.87
2018-03-23T15:32:55.302Z,16.83
2018-03-23T15:35:22.261Z,16.10
2018-03-23T15:37:49.223Z,16.57
2018-03-23T15:40:16.114Z,18.90
2018-03-23T15:42:43.144Z,18.47
2018-03-23T15:45:10.416Z,17.10
2018-03-23T15:47:37.588Z,18.53
2018-03-23T15:50:04.436Z,20.57
2018-03-23T15:52:32.388Z,20.90
2018-03-23T15:54:59.882Z,21.47
2018-03-23T15:57:27.875Z,22.00
2018-03-23T15:59:55.893Z,20.77
2018-03-23T16:02:23.654Z,21.80
2018-03-23T16:04:52.463Z,22.87
2018-03-23T16:07:19.538Z,19.20
2018-03-23T16:09:46.813Z,21.23
2018-03-23T16:12:14.331Z,25.33
2018-03-23T16:14:41.319Z,21.93
2018-03-23T16:17:08.250Z,20.13
2018-03-23T16:19:35.467Z,21.77
2018-03-23T16:22:02.446Z,22.00
2018-03-23T16:24:29.686Z,20.50
2018-03-23T16:26:56.548Z,20.97
2018-03-23T16:29:23.809Z,17.23
2018-03-23T16:31:51.054Z,17.23
2018-03-23T16:34:18.259Z,15.67
2018-03-23T16:36:45.310Z,15.50
2018-03-23T16:39:12.190Z,14.33
2018-03-23T16:41:39.706Z,13.83
2018-03-23T16:44:07.018Z,14.30
2018-03-23T16:46:34.837Z,13.07
2018-03-23T16:49:02.328Z,13.93
2018-03-23T16:51:29.825Z,11.67
2018-03-23T16:53:56.908Z,11.73
2018-03-23T16:56:24.246Z,11.03
2018-03-23T16:58:52.821Z,12.00
2018-03-23T17:01:20.174Z,14.53
2018-03-23T17:03:48.705Z,10.13
2018-03-23T17:06:17.773Z,11.70
2018-03-23T17:08:45.032Z,10.83
2018-03-23T17:11:12.653Z,11.00
2018-03-23T17:13:40.048Z,11.07
2018-03-23T17:16:07.634Z,10.53
2018-03-23T17:18:35.079Z,12.00
2018-03-23T17:21:02.835Z,11.60
2018-03-23T17:23:30.148Z,13.47
2018-03-23T17:25:58.074Z,11.30
2018-03-23T17:28:26.046Z,14.27
2018-03-23T17:30:54.345Z,11.30
2018-03-23T17:33:21.543Z,10.20
2018-03-23T17:35:48.824Z,12.13
2018-03-23T17:38:16.717Z,11.07
2018-03-23T17:40:46.381Z,11.43
2018-03-23T17:43:13.558Z,13.00
2018-03-23T17:45:41.649Z,14.23
2018-03-23T17:48:09.903Z,12.43
2018-03-23T17:50:36.785Z,13.27
2018-03-23T17:53:03.629Z,13.27
2018-03-23T17:55:35.891Z,12.63
2018-03-23T17:58:02.792Z,14.47
2018-03-23T18:00:30.568Z,13.70
2018-03-23T18:02:57.483Z,16.00
2018-03-23T18:05:24.421Z,13.57
2018-03-23T18:07:51.484Z,13.60
2018-03-23T18:10:18.455Z,14.33
2018-03-23T18:12:45.505Z,14.37
2018-03-23T18:15:13.727Z,16.50
2018-03-23T18:17:41.426Z,15.53
2018-03-23T18:20:08.459Z,18.67
2018-03-23T18:22:35.406Z,15.97
2018-03-23T18:25:02.378Z,14.27
2018-03-23T18:27:29.338Z,15.43
2018-03-23T18:29:56.321Z,15.33
2018-03-23T18:32:23.288Z,13.63
2018-03-23T18:34:50.224Z,14.43
2018-03-23T18:37:17.225Z,18.63
2018-03-23T18:39:44.134Z,16.00
2018-03-23T18:42:11.057Z,16.00
2018-03-23T18:44:37.993Z,17.43
2018-03-23T18:47:04.912Z,19.17
2018-03-23T18:49:31.827Z,18.00
2018-03-23T18:51:58.750Z,18.33
2018-03-23T18:54:25.682Z,22.00
2018-03-23T18:56:52.765Z,18.93
2018-03-23T18:59:19.673Z,19.67
2018-03-23T19:01:46.877Z,18.23
2018-03-23T19:04:13.805Z,19.57
2018-03-23T19:06:40.814Z,33.33
2018-03-23T19:09:07.891Z,24.17
2018-03-23T19:11:34.955Z,21.30
2018-03-23T19:14:01.802Z,20.60
2018-03-23T19:16:29.166Z,21.20
2018-03-23T19:18:56.030Z,20.63
2018-03-23T19:21:23.094Z,21.63
2018-03-23T19:23:50.053Z,21.63
2018-03-23T19:26:17.238Z,22.13
2018-03-23T19:28:44.393Z,24.40
2018-03-23T19:31:11.567Z,21.80
2018-03-23T19:33:38.580Z,21.47
2018-03-23T19:36:06.522Z,23.83
2018-03-23T19:38:35.059Z,21.67
2018-03-23T19:41:02.133Z,23.77
2018-03-23T19:43:29.300Z,22.97
2018-03-23T19:45:56.359Z,23.53
2018-03-23T19:48:23.379Z,26.40
2018-03-23T19:50:50.467Z,21.47
2018-03-23T19:53:17.373Z,22.73
2018-03-23T19:55:44.363Z,23.17
2018-03-23T19:58:11.348Z,22.70
2018-03-23T20:00:38.296Z,23.90
2018-03-23T20:03:05.311Z,26.57
2018-03-23T20:05:32.239Z,24.17
2018-03-23T20:07:59.175Z,23.63
2018-03-23T20:10:26.596Z,25.03
2018-03-23T20:12:53.622Z,24.80
2018-03-23T20:15:20.616Z,32.30
2018-03-23T20:17:54.449Z,25.12
2018-03-23T20:20:27.348Z,25.83
2018-03-23T20:22:54.324Z,28.20
2018-03-23T20:25:21.469Z,26.20
2018-03-23T20:27:54.224Z,25.30
2018-03-23T20:30:21.407Z,23.27
2018-03-23T20:32:48.555Z,23.50
2018-03-23T20:35:15.588Z,27.80
2018-03-23T20:37:42.533Z,28.03
2018-03-23T20:40:09.448Z,25.70
2018-03-23T20:42:36.497Z,28.77
2018-03-23T20:45:03.559Z,22.77
2018-03-23T20:47:31.859Z,25.37
2018-03-23T20:49:58.861Z,26.45
2018-03-23T20:52:25.818Z,23.87
2018-03-23T20:54:52.936Z,29.15
2018-03-23T20:57:19.984Z,28.73
2018-03-23T20:59:47.189Z,29.95
2018-03-23T21:02:14.381Z,26.10
2018-03-23T21:04:41.595Z,35.40
2018-03-23T21:07:08.698Z,31.62
2018-03-23T21:09:35.612Z,32.70
2018-03-23T21:12:02.875Z,43.00
2018-03-23T21:14:29.923Z,59.20
2018-03-23T21:16:56.928Z,34.95
2018-03-23T21:19:29.013Z,30.48
2018-03-23T21:21:56.506Z,30.08
2018-03-23T21:24:23.533Z,27.33
2018-03-23T21:26:50.500Z,31.52
2018-03-23T21:29:17.639Z,30.08
2018-03-23T21:31:44.795Z,28.27
2018-03-23T21:34:11.788Z,26.80
2018-03-23T21:36:38.812Z,29.45
2018-03-23T21:39:05.873Z,28.62
2018-03-23T21:41:33.091Z,26.05
2018-03-23T21:44:00.057Z,28.33
2018-03-23T21:46:27.074Z,26.12
2018-03-23T21:48:54.207Z,29.17
2018-03-23T21:51:21.256Z,29.12
2018-03-23T21:53:48.254Z,25.05
2018-03-23T21:56:15.407Z,28.60
2018-03-23T21:58:42.386Z,28.08
2018-03-23T22:01:09.541Z,26.67
2018-03-23T22:03:36.748Z,26.12
2018-03-23T22:06:03.771Z,28.38
2018-03-23T22:08:30.700Z,29.08
2018-03-23T22:10:58.087Z,29.08
2018-03-23T22:13:25.013Z,28.33
2018-03-23T22:15:52.141Z,26.62
2018-03-23T22:18:19.078Z,28.65
2018-03-23T22:20:46.053Z,31.33
2018-03-23T22:23:13.018Z,35.20
2018-03-23T22:25:40.021Z,27.48
2018-03-23T22:28:07.020Z,30.73
2018-03-23T22:30:34.052Z,28.77
2018-03-23T22:33:01.052Z,29.90
2018-03-23T22:35:27.988Z,32.50
2018-03-23T22:37:58.214Z,30.20
2018-03-23T22:40:25.668Z,34.90
2018-03-23T22:42:52.575Z,25.08
2018-03-23T22:45:19.594Z,33.65
2018-03-23T22:47:46.529Z,33.53
2018-03-23T22:50:13.508Z,28.95
2018-03-23T22:52:40.439Z,31.55
2018-03-23T22:55:07.293Z,31.15
2018-03-23T22:57:34.260Z,35.92
2018-03-23T23:00:01.241Z,31.33
2018-03-23T23:02:28.217Z,28.55
2018-03-23T23:04:55.410Z,33.10
2018-03-23T23:07:22.799Z,32.70
2018-03-23T23:09:49.774Z,33.08
2018-03-23T23:12:16.732Z,31.35
2018-03-23T23:14:43.673Z,33.22
2018-03-23T23:17:10.768Z,32.95
2018-03-23T23:19:37.863Z,36.03
2018-03-23T23:22:04.983Z,35.55
2018-03-23T23:24:31.875Z,38.28
2018-03-23T23:26:59.040Z,35.17
2018-03-23T23:29:26.040Z,34.90
2018-03-23T23:31:53.080Z,37.03
2018-03-23T23:34:20.210Z,36.47
2018-03-23T23:36:47.308Z,34.13
2018-03-23T23:39:14.292Z,35.00
2018-03-23T23:41:41.428Z,37.92
2018-03-23T23:44:08.609Z,37.88
2018-03-23T23:46:35.751Z,35.03
2018-03-23T23:49:02.686Z,36.47
2018-03-23T23:51:29.724Z,32.55
2018-03-23T23:53:56.688Z,34.45
2018-03-23T23:56:23.938Z,34.38
2018-03-23T23:58:50.992Z,35.05
